createdAt,value
2018-03-11T00:00:14.805Z,0.00
2018-03-11T00:01:14.966Z,0.00
2018-03-11T00:02:15.167Z,0.00
2018-03-11T00:03:15.286Z,0.00
2018-03-11T00:04:15.445Z,0.00
2018-03-11T00:05:15.608Z,0.00
2018-03-11T00:06:15.767Z,0.00
2018-03-11T00:07:15.927Z,0.00
2018-03-11T00:08:16.087Z,0.00
2018-03-11T00:09:16.242Z,0.00
2018-03-11T00:10:16.402Z,0.00
2018-03-11T00:11:16.562Z,0.00
2018-03-11T00:12:16.722Z,0.00
2018-03-11T00:13:16.884Z,0.00
2018-03-11T00:14:17.044Z,0.00
2018-03-11T00:15:17.207Z,0.00
2018-03-11T00:16:17.360Z,0.00
2018-03-11T00:17:17.522Z,0.00
2018-03-11T00:18:17.684Z,0.00
2018-03-11T00:19:17.842Z,0.00
2018-03-11T00:20:18.002Z,0.00
2018-03-11T00:21:18.164Z,0.00
2018-03-11T00:22:18.323Z,0.00
2018-03-11T00:23:18.478Z,0.00
2018-03-11T00:24:18.651Z,0.00
2018-03-11T00:25:18.806Z,0.00
2018-03-11T00:26:18.967Z,0.00
2018-03-11T00:27:19.127Z,0.00
2018-03-11T00:28:19.289Z,0.00
2018-03-11T00:29:19.456Z,0.00
2018-03-11T00:30:19.610Z,0.00
2018-03-11T00:31:19.770Z,0.00
2018-03-11T00:32:19.932Z,0.00
2018-03-11T00:33:20.150Z,0.00
2018-03-11T00:34:20.310Z,0.00
2018-03-11T00:35:20.471Z,0.00
2018-03-11T00:36:20.631Z,0.00
2018-03-11T00:37:20.791Z,0.00
2018-03-11T00:38:20.952Z,0.00
2018-03-11T00:39:21.111Z,0.00
2018-03-11T00:40:21.272Z,0.00
2018-03-11T00:41:21.437Z,0.00
2018-03-11T00:42:21.593Z,0.00
2018-03-11T00:43:21.754Z,0.00
2018-03-11T00:44:21.915Z,0.00
2018-03-11T00:45:22.075Z,0.00
2018-03-11T00:46:22.236Z,0.00
2018-03-11T00:47:22.403Z,0.00
2018-03-11T00:48:22.561Z,0.00
2018-03-11T00:49:22.722Z,0.00
2018-03-11T00:50:22.882Z,0.00
2018-03-11T00:51:23.043Z,0.00
2018-03-11T00:52:23.203Z,0.00
2018-03-11T00:53:23.376Z,0.00
2018-03-11T00:54:23.536Z,0.00
2018-03-11T00:55:23.697Z,0.00
2018-03-11T00:56:23.857Z,0.00
2018-03-11T00:57:24.018Z,0.00
2018-03-11T00:58:24.178Z,0.00
2018-03-11T00:59:24.343Z,0.00
2018-03-11T01:00:24.498Z,0.00
2018-03-11T01:01:24.661Z,0.00
2018-03-11T01:02:24.821Z,0.00
2018-03-11T01:03:24.982Z,0.00
2018-03-11T01:04:25.139Z,0.00
2018-03-11T01:05:25.303Z,0.00
2018-03-11T01:06:25.463Z,0.00
2018-03-11T01:07:25.623Z,0.00
2018-03-11T01:08:25.784Z,0.00
2018-03-11T01:09:25.944Z,0.00
2018-03-11T01:10:26.104Z,0.00
2018-03-11T01:11:26.265Z,0.00
2018-03-11T01:12:26.422Z,0.00
2018-03-11T01:13:26.583Z,0.00
2018-03-11T01:14:26.743Z,0.00
2018-03-11T01:15:26.958Z,0.00
2018-03-11T01:16:27.066Z,0.00
2018-03-11T01:17:27.230Z,0.00
2018-03-11T01:18:27.389Z,0.00
2018-03-11T01:19:27.547Z,0.00
2018-03-11T01:20:27.708Z,0.00
2018-03-11T01:21:27.869Z,0.00
2018-03-11T01:22:28.029Z,0.00
2018-03-11T01:23:28.187Z,0.00
2018-03-11T01:24:28.351Z,0.00
2018-03-11T01:25:28.512Z,0.00
2018-03-11T01:26:28.673Z,0.00
2018-03-11T01:27:28.835Z,0.00
2018-03-11T01:28:28.995Z,0.00
2018-03-11T01:29:29.157Z,0.00
2018-03-11T01:30:29.319Z,0.00
2018-03-11T01:31:29.477Z,0.00
2018-03-11T01:32:29.636Z,0.00
2018-03-11T01:33:29.799Z,0.00
2018-03-11T01:34:29.960Z,0.00
2018-03-11T01:35:30.120Z,0.00
2018-03-11T01:36:30.283Z,0.00
2018-03-11T01:37:30.443Z,0.00
2018-03-11T01:38:30.603Z,0.00
2018-03-11T01:39:30.765Z,0.00
2018-03-11T01:40:30.925Z,0.00
2018-03-11T01:41:31.086Z,0.00
2018-03-11T01:42:31.246Z,0.00
2018-03-11T01:43:31.406Z,0.00
2018-03-11T01:44:31.565Z,0.00
2018-03-11T01:45:31.728Z,0.00
2018-03-11T01:46:31.884Z,0.00
2018-03-11T01:47:32.048Z,0.00
2018-03-11T01:48:32.209Z,0.00
2018-03-11T01:49:32.370Z,0.00
2018-03-11T01:50:32.532Z,0.00
2018-03-11T01:51:32.691Z,0.00
2018-03-11T01:52:32.853Z,0.00
2018-03-11T01:53:33.016Z,0.00
2018-03-11T01:54:33.175Z,0.00
2018-03-11T01:55:33.335Z,0.00
2018-03-11T01:56:33.498Z,0.00
2018-03-11T01:57:33.657Z,0.00
2018-03-11T01:58:33.818Z,0.00
2018-03-11T01:59:33.987Z,0.00
2018-03-11T02:00:34.205Z,0.00
2018-03-11T02:01:34.360Z,0.00
2018-03-11T02:02:34.520Z,0.00
2018-03-11T02:03:34.681Z,0.00
2018-03-11T02:04:34.890Z,0.00
2018-03-11T02:05:35.003Z,0.00
2018-03-11T02:06:35.164Z,0.00
2018-03-11T02:07:35.328Z,0.00
2018-03-11T02:08:35.486Z,0.00
2018-03-11T02:09:35.645Z,0.00
2018-03-11T02:10:35.808Z,0.00
2018-03-11T02:11:35.968Z,0.00
2018-03-11T02:12:36.128Z,0.00
2018-03-11T02:13:36.289Z,0.00
2018-03-11T02:14:36.449Z,0.00
2018-03-11T02:15:36.610Z,0.00
2018-03-11T02:16:36.777Z,0.00
2018-03-11T02:17:36.931Z,0.00
2018-03-11T02:18:37.093Z,0.00
2018-03-11T02:19:37.253Z,0.00
2018-03-11T02:20:37.415Z,0.00
2018-03-11T02:21:37.576Z,0.00
2018-03-11T02:22:37.737Z,0.00
2018-03-11T02:23:37.898Z,0.00
2018-03-11T02:24:38.059Z,0.00
2018-03-11T02:25:38.222Z,0.00
2018-03-11T02:26:38.380Z,0.00
2018-03-11T02:27:38.541Z,0.00
2018-03-11T02:28:38.702Z,0.00
2018-03-11T02:29:38.863Z,0.00
2018-03-11T02:30:39.032Z,0.00
2018-03-11T02:31:39.199Z,0.00
2018-03-11T02:32:39.357Z,0.00
2018-03-11T02:33:39.519Z,0.00
2018-03-11T02:34:39.693Z,0.00
2018-03-11T02:35:39.834Z,0.00
2018-03-11T02:36:40.002Z,0.00
2018-03-11T02:37:40.152Z,0.00
2018-03-11T02:38:40.317Z,0.00
2018-03-11T02:39:40.472Z,0.00
2018-03-11T02:40:40.709Z,0.00
2018-03-11T02:41:40.740Z,0.00
2018-03-11T02:42:40.903Z,0.00
2018-03-11T02:43:41.066Z,0.00
2018-03-11T02:44:41.226Z,0.00
2018-03-11T02:45:41.386Z,0.00
2018-03-11T02:46:41.543Z,0.00
2018-03-11T02:47:41.701Z,0.00
2018-03-11T02:48:41.863Z,0.00
2018-03-11T02:49:42.024Z,0.00
2018-03-11T02:50:42.184Z,0.00
2018-03-11T02:51:42.346Z,0.00
2018-03-11T02:52:42.507Z,0.00
2018-03-11T02:53:42.668Z,0.00
2018-03-11T02:54:42.827Z,0.00
2018-03-11T02:55:42.991Z,0.00
2018-03-11T02:56:43.149Z,0.00
2018-03-11T02:57:43.308Z,0.00
2018-03-11T02:58:43.468Z,0.00
2018-03-11T02:59:43.630Z,0.00
2018-03-11T03:00:43.794Z,0.00
2018-03-11T03:01:43.954Z,0.00
2018-03-11T03:02:44.115Z,0.00
2018-03-11T03:03:44.276Z,0.00
2018-03-11T03:04:44.434Z,0.00
2018-03-11T03:05:44.591Z,0.00
2018-03-11T03:06:44.754Z,0.00
2018-03-11T03:07:44.914Z,0.00
2018-03-11T03:08:45.075Z,0.00
2018-03-11T03:09:45.235Z,0.00
2018-03-11T03:10:45.395Z,0.00
2018-03-11T03:11:45.557Z,0.00
2018-03-11T03:12:45.715Z,0.00
2018-03-11T03:13:45.881Z,0.00
2018-03-11T03:14:46.036Z,0.00
2018-03-11T03:15:46.198Z,0.00
2018-03-11T03:16:46.354Z,0.00
2018-03-11T03:17:46.514Z,0.00
2018-03-11T03:18:46.673Z,0.00
2018-03-11T03:19:46.832Z,0.00
2018-03-11T03:20:46.985Z,0.00
2018-03-11T03:21:47.155Z,0.00
2018-03-11T03:22:47.314Z,0.00
2018-03-11T03:23:47.478Z,0.00
2018-03-11T03:24:47.634Z,0.00
2018-03-11T03:25:47.794Z,0.00
2018-03-11T03:26:47.954Z,0.00
2018-03-11T03:27:48.114Z,0.00
2018-03-11T03:28:48.280Z,0.00
2018-03-11T03:29:48.436Z,0.00
2018-03-11T03:30:48.627Z,0.00
2018-03-11T03:31:48.757Z,0.00
2018-03-11T03:32:48.923Z,0.00
2018-03-11T03:33:49.085Z,0.00
2018-03-11T03:34:49.242Z,0.00
2018-03-11T03:35:49.401Z,0.00
2018-03-11T03:36:49.564Z,0.00
2018-03-11T03:37:49.727Z,0.00
2018-03-11T03:38:49.883Z,0.00
2018-03-11T03:39:50.044Z,0.00
2018-03-11T03:40:50.205Z,0.00
2018-03-11T03:41:50.365Z,0.00
2018-03-11T03:42:50.530Z,0.00
2018-03-11T03:43:50.687Z,0.00
2018-03-11T03:44:50.847Z,0.00
2018-03-11T03:45:51.008Z,0.00
2018-03-11T03:46:51.167Z,0.00
2018-03-11T03:47:51.327Z,0.00
2018-03-11T03:48:51.483Z,0.00
2018-03-11T03:49:51.651Z,0.00
2018-03-11T03:50:51.812Z,0.00
2018-03-11T03:51:51.972Z,0.00
2018-03-11T03:52:52.131Z,0.00
2018-03-11T03:53:52.292Z,0.00
2018-03-11T03:54:52.450Z,0.00
2018-03-11T03:55:52.619Z,0.00
2018-03-11T03:56:52.779Z,0.00
2018-03-11T03:57:52.938Z,0.00
2018-03-11T03:58:53.097Z,0.00
2018-03-11T03:59:53.257Z,0.00
2018-03-11T04:00:53.412Z,0.00
2018-03-11T04:01:53.579Z,0.00
2018-03-11T04:02:53.739Z,0.00
2018-03-11T04:03:53.929Z,0.00
2018-03-11T04:04:54.067Z,0.00
2018-03-11T04:05:54.227Z,0.00
2018-03-11T04:06:54.386Z,0.00
2018-03-11T04:07:54.627Z,0.00
2018-03-11T04:08:54.661Z,0.00
2018-03-11T04:09:54.820Z,0.00
2018-03-11T04:10:54.979Z,0.00
2018-03-11T04:11:55.139Z,0.00
2018-03-11T04:12:55.299Z,0.00
2018-03-11T04:13:55.457Z,0.00
2018-03-11T04:14:55.621Z,0.00
2018-03-11T04:15:55.779Z,0.00
2018-03-11T04:16:55.937Z,0.00
2018-03-11T04:17:56.097Z,0.00
2018-03-11T04:18:56.296Z,0.00
2018-03-11T04:19:56.417Z,0.00
2018-03-11T04:20:56.561Z,0.00
2018-03-11T04:21:56.730Z,0.00
2018-03-11T04:22:56.873Z,0.00
2018-03-11T04:23:57.038Z,0.00
2018-03-11T04:24:57.191Z,0.00
2018-03-11T04:25:57.350Z,0.00
2018-03-11T04:26:57.508Z,0.00
2018-03-11T04:27:57.668Z,0.00
2018-03-11T04:28:57.827Z,0.00
2018-03-11T04:29:57.986Z,0.00
2018-03-11T04:30:58.144Z,0.00
2018-03-11T04:31:58.307Z,0.00
2018-03-11T04:32:58.460Z,0.00
2018-03-11T04:33:58.622Z,0.00
2018-03-11T04:34:58.782Z,0.00
2018-03-11T04:35:58.940Z,0.00
2018-03-11T04:36:59.099Z,0.00
2018-03-11T04:37:59.260Z,0.00
2018-03-11T04:38:59.423Z,0.00
2018-03-11T04:39:59.568Z,0.00
2018-03-11T04:40:59.727Z,0.00
2018-03-11T04:41:59.885Z,0.00
2018-03-11T04:43:00.051Z,0.00
2018-03-11T04:44:00.201Z,0.00
2018-03-11T04:45:00.360Z,0.00
2018-03-11T04:46:00.517Z,0.00
2018-03-11T04:47:00.677Z,0.00
2018-03-11T04:48:00.835Z,0.00
2018-03-11T04:49:00.992Z,0.00
2018-03-11T04:50:01.148Z,0.00
2018-03-11T04:51:01.301Z,0.00
2018-03-11T04:52:01.463Z,0.00
2018-03-11T04:53:01.624Z,0.00
2018-03-11T04:54:01.783Z,0.00
2018-03-11T04:55:01.956Z,0.00
2018-03-11T04:56:02.104Z,0.00
2018-03-11T04:57:02.271Z,0.00
2018-03-11T04:58:02.438Z,0.00
2018-03-11T04:59:02.589Z,0.00
2018-03-11T05:00:04.398Z,0.00
2018-03-11T05:01:02.933Z,0.00
2018-03-11T05:02:03.088Z,0.00
2018-03-11T05:03:03.247Z,0.00
2018-03-11T05:04:03.407Z,0.00
2018-03-11T05:05:03.564Z,0.00
2018-03-11T05:06:03.725Z,0.00
2018-03-11T05:07:03.882Z,0.00
2018-03-11T05:08:04.039Z,0.00
2018-03-11T05:09:04.198Z,0.00
2018-03-11T05:10:04.357Z,0.00
2018-03-11T05:11:04.518Z,0.00
2018-03-11T05:12:04.675Z,0.00
2018-03-11T05:13:04.842Z,0.00
2018-03-11T05:14:04.999Z,0.00
2018-03-11T05:15:05.158Z,0.00
2018-03-11T05:16:05.310Z,0.00
2018-03-11T05:17:05.486Z,0.00
2018-03-11T05:18:05.691Z,0.00
2018-03-11T05:19:05.852Z,0.00
2018-03-11T05:20:06.012Z,0.00
2018-03-11T05:21:06.171Z,0.00
2018-03-11T05:22:06.333Z,0.00
2018-03-11T05:23:06.489Z,4.00
2018-03-11T05:24:06.678Z,0.00
2018-03-11T05:25:06.829Z,4.00
2018-03-11T05:26:06.980Z,0.00
2018-03-11T05:27:07.139Z,4.00
2018-03-11T05:28:07.298Z,4.00
2018-03-11T05:29:07.460Z,8.00
2018-03-11T05:30:07.619Z,8.00
2018-03-11T05:31:07.771Z,8.00
2018-03-11T05:32:07.941Z,8.00
2018-03-11T05:33:08.097Z,12.00
2018-03-11T05:34:08.268Z,12.00
2018-03-11T05:35:08.426Z,20.00
2018-03-11T05:36:08.583Z,24.00
2018-03-11T05:37:08.740Z,28.00
2018-03-11T05:38:08.908Z,32.00
2018-03-11T05:39:09.057Z,36.00
2018-03-11T05:40:09.232Z,36.00
2018-03-11T05:41:09.390Z,36.00
2018-03-11T05:42:09.549Z,44.00
2018-03-11T05:43:09.708Z,48.00
2018-03-11T05:44:09.869Z,52.00
2018-03-11T05:45:10.028Z,56.00
2018-03-11T05:46:10.191Z,64.00
2018-03-11T05:47:10.352Z,72.00
2018-03-11T05:48:10.516Z,80.00
2018-03-11T05:49:10.671Z,84.00
2018-03-11T05:50:10.836Z,92.00
2018-03-11T05:51:10.995Z,100.00
2018-03-11T05:52:11.158Z,112.00
2018-03-11T05:53:11.316Z,120.00
2018-03-11T05:54:11.477Z,124.00
2018-03-11T05:55:11.629Z,128.00
2018-03-11T05:56:11.798Z,128.00
2018-03-11T05:57:11.959Z,132.00
2018-03-11T05:58:12.119Z,140.00
2018-03-11T05:59:12.279Z,148.00
2018-03-11T06:00:12.441Z,152.00
2018-03-11T06:01:12.600Z,160.00
2018-03-11T06:02:12.765Z,172.00
2018-03-11T06:03:12.941Z,188.00
2018-03-11T06:04:13.107Z,208.00
2018-03-11T06:05:13.265Z,232.00
2018-03-11T06:06:13.425Z,252.00
2018-03-11T06:07:13.584Z,264.00
2018-03-11T06:08:13.742Z,268.00
2018-03-11T06:09:13.916Z,280.00
2018-03-11T06:10:14.056Z,304.00
2018-03-11T06:11:14.215Z,324.00
2018-03-11T06:12:14.371Z,324.00
2018-03-11T06:13:14.530Z,332.00
2018-03-11T06:14:14.692Z,332.00
2018-03-11T06:15:14.850Z,344.00
2018-03-11T06:16:15.014Z,372.00
2018-03-11T06:17:15.165Z,380.00
2018-03-11T06:18:15.334Z,400.00
2018-03-11T06:19:15.490Z,428.00
2018-03-11T06:20:15.655Z,440.00
2018-03-11T06:21:15.820Z,444.00
2018-03-11T06:22:15.985Z,432.00
2018-03-11T06:23:16.143Z,428.00
2018-03-11T06:24:16.302Z,428.00
2018-03-11T06:25:16.460Z,452.00
2018-03-11T06:26:16.631Z,448.00
2018-03-11T06:27:16.790Z,496.00
2018-03-11T06:28:16.946Z,476.00
2018-03-11T06:29:17.106Z,488.00
2018-03-11T06:30:17.326Z,432.00
2018-03-11T06:31:17.415Z,416.00
2018-03-11T06:32:17.635Z,420.00
2018-03-11T06:33:17.798Z,420.00
2018-03-11T06:34:17.958Z,464.00
2018-03-11T06:35:18.118Z,460.00
2018-03-11T06:36:18.272Z,468.00
2018-03-11T06:37:18.443Z,508.00
2018-03-11T06:38:18.603Z,532.00
2018-03-11T06:39:18.763Z,652.00
2018-03-11T06:40:18.914Z,788.00
2018-03-11T06:41:19.084Z,796.00
2018-03-11T06:42:19.243Z,800.00
2018-03-11T06:43:19.404Z,816.00
2018-03-11T06:44:19.564Z,856.00
2018-03-11T06:45:19.725Z,908.00
2018-03-11T06:46:19.885Z,968.00
2018-03-11T06:47:20.048Z,1020.00
2018-03-11T06:48:20.204Z,992.00
2018-03-11T06:49:20.368Z,848.00
2018-03-11T06:50:20.521Z,1060.00
2018-03-11T06:51:20.692Z,1028.00
2018-03-11T06:52:20.850Z,860.00
2018-03-11T06:53:21.014Z,812.00
2018-03-11T06:54:21.193Z,772.00
2018-03-11T06:55:21.347Z,764.00
2018-03-11T06:56:21.506Z,780.00
2018-03-11T06:57:21.670Z,916.00
2018-03-11T06:58:21.824Z,928.00
2018-03-11T06:59:21.978Z,1004.00
2018-03-11T07:00:22.137Z,1008.00
2018-03-11T07:01:22.302Z,1136.00
2018-03-11T07:02:22.462Z,1252.00
2018-03-11T07:03:22.621Z,1212.00
2018-03-11T07:04:22.772Z,1096.00
2018-03-11T07:05:22.939Z,936.00
2018-03-11T07:06:23.099Z,908.00
2018-03-11T07:07:23.261Z,892.00
2018-03-11T07:08:23.424Z,876.00
2018-03-11T07:09:23.583Z,872.00
2018-03-11T07:10:23.741Z,896.00
2018-03-11T07:11:23.905Z,940.00
2018-03-11T07:12:24.064Z,1328.00
2018-03-11T07:13:24.226Z,1284.00
2018-03-11T07:14:24.387Z,1520.00
2018-03-11T07:15:24.553Z,1584.00
2018-03-11T07:16:24.712Z,1572.00
2018-03-11T07:17:24.883Z,1636.00
2018-03-11T07:18:25.042Z,1748.00
2018-03-11T07:19:25.202Z,1848.00
2018-03-11T07:20:25.362Z,1776.00
2018-03-11T07:21:25.516Z,1660.00
2018-03-11T07:22:25.681Z,1604.00
2018-03-11T07:23:25.842Z,1564.00
2018-03-11T07:24:26.002Z,1492.00
2018-03-11T07:25:26.162Z,1484.00
2018-03-11T07:26:26.323Z,1296.00
2018-03-11T07:27:26.483Z,1332.00
2018-03-11T07:28:26.643Z,1408.00
2018-03-11T07:29:26.803Z,1416.00
2018-03-11T07:30:26.964Z,1384.00
2018-03-11T07:31:27.125Z,1384.00
2018-03-11T07:32:27.285Z,1376.00
2018-03-11T07:33:27.445Z,1504.00
2018-03-11T07:34:27.606Z,1508.00
2018-03-11T07:35:27.769Z,1548.00
2018-03-11T07:36:27.926Z,1520.00
2018-03-11T07:37:28.088Z,1648.00
2018-03-11T07:38:28.248Z,1664.00
2018-03-11T07:39:28.408Z,1792.00
2018-03-11T07:40:28.561Z,1828.00
2018-03-11T07:41:28.728Z,1840.00
2018-03-11T07:42:28.886Z,1820.00
2018-03-11T07:43:29.047Z,1764.00
2018-03-11T07:44:29.208Z,1704.00
2018-03-11T07:45:29.369Z,1668.00
2018-03-11T07:46:29.529Z,1636.00
2018-03-11T07:47:29.690Z,1624.00
2018-03-11T07:48:29.852Z,1560.00
2018-03-11T07:49:30.015Z,1700.00
2018-03-11T07:50:30.175Z,1912.00
2018-03-11T07:51:30.338Z,1968.00
2018-03-11T07:52:30.495Z,1988.00
2018-03-11T07:53:30.656Z,2064.00
2018-03-11T07:54:30.884Z,2096.00
2018-03-11T07:55:30.979Z,2128.00
2018-03-11T07:56:31.140Z,2032.00
2018-03-11T07:57:31.302Z,1952.00
2018-03-11T07:58:31.462Z,2036.00
2018-03-11T07:59:31.623Z,2060.00
2018-03-11T08:00:31.783Z,2104.00
2018-03-11T08:01:31.951Z,2196.00
2018-03-11T08:02:32.103Z,2260.00
2018-03-11T08:03:32.267Z,2268.00
2018-03-11T08:04:32.426Z,2148.00
2018-03-11T08:05:32.589Z,2280.00
2018-03-11T08:06:32.751Z,2484.00
2018-03-11T08:07:32.916Z,2596.00
2018-03-11T08:08:33.073Z,2644.00
2018-03-11T08:09:33.235Z,2580.00
2018-03-11T08:10:33.396Z,2644.00
2018-03-11T08:11:33.558Z,2656.00
2018-03-11T08:12:33.716Z,2572.00
2018-03-11T08:13:33.879Z,2408.00
2018-03-11T08:14:34.084Z,2300.00
2018-03-11T08:15:34.189Z,2164.00
2018-03-11T08:16:34.369Z,2100.00
2018-03-11T08:17:34.526Z,1980.00
2018-03-11T08:18:34.681Z,1864.00
2018-03-11T08:19:34.841Z,1804.00
2018-03-11T08:20:35.002Z,1768.00
2018-03-11T08:21:35.165Z,1620.00
2018-03-11T08:22:35.325Z,1512.00
2018-03-11T08:23:35.488Z,1396.00
2018-03-11T08:24:35.650Z,1316.00
2018-03-11T08:25:35.812Z,1196.00
2018-03-11T08:26:35.974Z,1088.00
2018-03-11T08:27:36.136Z,1068.00
2018-03-11T08:28:36.298Z,1116.00
2018-03-11T08:29:36.460Z,1196.00
2018-03-11T08:30:36.625Z,1284.00
2018-03-11T08:31:36.783Z,1368.00
2018-03-11T08:32:36.945Z,1508.00
2018-03-11T08:33:37.108Z,1616.00
2018-03-11T08:34:37.303Z,1660.00
2018-03-11T08:35:37.462Z,1732.00
2018-03-11T08:36:37.623Z,1864.00
2018-03-11T08:37:37.785Z,2048.00
2018-03-11T08:38:37.950Z,2224.00
2018-03-11T08:39:38.111Z,2440.00
2018-03-11T08:40:38.273Z,2676.00
2018-03-11T08:41:38.436Z,2804.00
2018-03-11T08:42:38.597Z,2944.00
2018-03-11T08:43:38.759Z,2808.00
2018-03-11T08:44:38.934Z,2748.00
2018-03-11T08:45:39.088Z,2688.00
2018-03-11T08:46:39.250Z,2532.00
2018-03-11T08:47:39.410Z,2376.00
2018-03-11T08:48:39.572Z,2260.00
2018-03-11T08:49:39.733Z,2196.00
2018-03-11T08:50:39.904Z,2104.00
2018-03-11T08:51:40.056Z,2008.00
2018-03-11T08:52:40.226Z,1972.00
2018-03-11T08:53:40.381Z,2060.00
2018-03-11T08:54:40.548Z,2276.00
2018-03-11T08:55:40.702Z,2504.00
2018-03-11T08:56:40.894Z,3080.00
2018-03-11T08:57:41.055Z,2680.00
2018-03-11T08:58:41.218Z,2920.00
2018-03-11T08:59:41.381Z,3020.00
2018-03-11T09:00:41.546Z,3380.00
2018-03-11T09:01:41.706Z,3060.00
2018-03-11T09:02:41.868Z,3836.00
2018-03-11T09:03:42.035Z,3684.00
2018-03-11T09:04:42.195Z,2928.00
2018-03-11T09:05:42.364Z,4032.00
2018-03-11T09:06:42.516Z,4136.00
2018-03-11T09:07:42.687Z,4448.00
2018-03-11T09:08:42.838Z,3664.00
2018-03-11T09:09:43.008Z,4508.00
2018-03-11T09:10:43.166Z,3632.00
2018-03-11T09:11:43.331Z,3704.00
2018-03-11T09:12:43.486Z,3352.00
2018-03-11T09:13:43.654Z,3228.00
2018-03-11T09:14:43.808Z,3108.00
2018-03-11T09:15:43.981Z,3060.00
2018-03-11T09:16:44.208Z,2956.00
2018-03-11T09:17:44.244Z,3032.00
2018-03-11T09:18:44.407Z,3008.00
2018-03-11T09:19:44.578Z,3028.00
2018-03-11T09:20:44.742Z,3036.00
2018-03-11T09:21:44.906Z,3072.00
2018-03-11T09:22:45.070Z,3052.00
2018-03-11T09:23:45.232Z,3080.00
2018-03-11T09:24:45.396Z,3116.00
2018-03-11T09:25:45.562Z,3448.00
2018-03-11T09:26:45.731Z,3684.00
2018-03-11T09:27:45.883Z,3396.00
2018-03-11T09:28:46.047Z,3272.00
2018-03-11T09:29:46.212Z,3316.00
2018-03-11T09:30:46.372Z,3168.00
2018-03-11T09:31:46.534Z,3092.00
2018-03-11T09:32:46.701Z,3308.00
2018-03-11T09:33:46.855Z,3368.00
2018-03-11T09:34:47.017Z,3368.00
2018-03-11T09:35:47.192Z,3324.00
2018-03-11T09:36:47.343Z,3304.00
2018-03-11T09:37:47.509Z,3372.00
2018-03-11T09:38:47.664Z,3400.00
2018-03-11T09:39:47.834Z,3628.00
2018-03-11T09:40:47.993Z,3712.00
2018-03-11T09:41:48.158Z,3748.00
2018-03-11T09:42:48.327Z,3780.00
2018-03-11T09:43:48.496Z,3992.00
2018-03-11T09:44:48.659Z,4064.00
2018-03-11T09:45:48.822Z,3456.00
2018-03-11T09:46:48.987Z,4200.00
2018-03-11T09:47:49.151Z,3876.00
2018-03-11T09:48:49.315Z,2804.00
2018-03-11T09:49:49.479Z,4136.00
2018-03-11T09:50:49.657Z,4656.00
2018-03-11T09:51:49.804Z,4172.00
2018-03-11T09:52:49.973Z,2096.00
2018-03-11T09:53:50.128Z,2344.00
2018-03-11T09:54:50.348Z,2236.00
2018-03-11T09:55:50.452Z,2092.00
2018-03-11T09:56:50.661Z,2400.00
2018-03-11T09:57:50.776Z,3636.00
2018-03-11T09:58:50.945Z,5260.00
2018-03-11T09:59:51.098Z,5224.00
2018-03-11T10:00:51.265Z,5184.00
2018-03-11T10:01:51.420Z,4236.00
2018-03-11T10:02:51.587Z,2952.00
2018-03-11T10:03:51.757Z,3060.00
2018-03-11T10:04:51.923Z,5040.00
2018-03-11T10:05:52.086Z,4556.00
2018-03-11T10:06:52.249Z,4028.00
2018-03-11T10:07:52.412Z,4128.00
2018-03-11T10:08:52.561Z,2116.00
2018-03-11T10:09:52.739Z,4008.00
2018-03-11T10:10:52.906Z,4524.00
2018-03-11T10:11:53.075Z,4636.00
2018-03-11T10:12:53.231Z,4708.00
2018-03-11T10:13:53.397Z,4784.00
2018-03-11T10:14:53.556Z,4776.00
2018-03-11T10:15:53.719Z,4792.00
2018-03-11T10:16:53.895Z,4896.00
2018-03-11T10:17:54.059Z,4780.00
2018-03-11T10:18:54.224Z,4792.00
2018-03-11T10:19:54.388Z,4784.00
2018-03-11T10:20:54.553Z,5036.00
2018-03-11T10:21:54.750Z,5044.00
2018-03-11T10:22:54.883Z,4764.00
2018-03-11T10:23:55.048Z,5060.00
2018-03-11T10:24:55.216Z,4984.00
2018-03-11T10:25:55.372Z,4976.00
2018-03-11T10:26:55.540Z,5052.00
2018-03-11T10:27:55.699Z,5008.00
2018-03-11T10:28:55.859Z,5072.00
2018-03-11T10:29:56.037Z,4944.00
2018-03-11T10:30:56.202Z,4888.00
2018-03-11T10:31:56.367Z,4900.00
2018-03-11T10:32:56.532Z,5032.00
2018-03-11T10:33:56.698Z,4368.00
2018-03-11T10:34:56.863Z,4828.00
2018-03-11T10:35:57.028Z,5376.00
2018-03-11T10:36:57.191Z,5548.00
2018-03-11T10:37:57.363Z,5916.00
2018-03-11T10:38:57.519Z,5692.00
2018-03-11T10:39:57.681Z,5740.00
2018-03-11T10:40:57.856Z,5728.00
2018-03-11T10:41:58.055Z,5704.00
2018-03-11T10:42:58.175Z,5752.00
2018-03-11T10:43:58.341Z,6148.00
2018-03-11T10:44:58.510Z,5240.00
2018-03-11T10:45:58.674Z,6096.00
2018-03-11T10:46:58.840Z,3716.00
2018-03-11T10:47:59.005Z,5156.00
2018-03-11T10:48:59.177Z,3816.00
2018-03-11T10:49:59.335Z,3764.00
2018-03-11T10:50:59.560Z,3248.00
2018-03-11T10:51:59.664Z,3136.00
2018-03-11T10:52:59.827Z,3120.00
2018-03-11T10:53:59.997Z,3160.00
2018-03-11T10:55:00.165Z,3228.00
2018-03-11T10:56:00.331Z,3428.00
2018-03-11T10:57:00.532Z,3540.00
2018-03-11T10:58:00.662Z,3504.00
2018-03-11T10:59:00.833Z,3404.00
2018-03-11T11:00:04.218Z,3496.00
2018-03-11T11:01:01.153Z,3656.00
2018-03-11T11:02:01.320Z,3500.00
2018-03-11T11:03:01.489Z,3432.00
2018-03-11T11:04:01.642Z,3712.00
2018-03-11T11:05:01.800Z,3256.00
2018-03-11T11:06:01.967Z,3116.00
2018-03-11T11:07:02.137Z,3052.00
2018-03-11T11:08:02.300Z,3120.00
2018-03-11T11:09:02.464Z,3136.00
2018-03-11T11:10:02.632Z,3020.00
2018-03-11T11:11:02.798Z,2788.00
2018-03-11T11:12:02.959Z,2472.00
2018-03-11T11:13:03.129Z,2332.00
2018-03-11T11:14:03.293Z,2336.00
2018-03-11T11:15:03.463Z,2288.00
2018-03-11T11:16:03.621Z,2228.00
2018-03-11T11:17:03.783Z,2084.00
2018-03-11T11:18:03.957Z,2056.00
2018-03-11T11:19:04.124Z,2188.00
2018-03-11T11:20:04.291Z,2292.00
2018-03-11T11:21:04.457Z,2312.00
2018-03-11T11:22:04.628Z,2288.00
2018-03-11T11:23:04.791Z,2280.00
2018-03-11T11:24:05.004Z,2248.00
2018-03-11T11:25:05.119Z,2196.00
2018-03-11T11:26:05.282Z,2232.00
2018-03-11T11:27:05.452Z,2508.00
2018-03-11T11:28:05.617Z,2620.00
2018-03-11T11:29:05.787Z,2628.00
2018-03-11T11:30:05.953Z,2452.00
2018-03-11T11:31:06.118Z,2276.00
2018-03-11T11:32:06.285Z,2100.00
2018-03-11T11:33:06.453Z,1980.00
2018-03-11T11:34:06.611Z,1944.00
2018-03-11T11:35:06.779Z,1952.00
2018-03-11T11:36:06.940Z,1940.00
2018-03-11T11:37:07.102Z,1864.00
2018-03-11T11:38:07.274Z,1792.00
2018-03-11T11:39:07.441Z,1780.00
2018-03-11T11:40:07.607Z,1744.00
2018-03-11T11:41:07.777Z,1584.00
2018-03-11T11:42:07.940Z,1384.00
2018-03-11T11:43:08.123Z,1376.00
2018-03-11T11:44:08.278Z,1612.00
2018-03-11T11:45:08.435Z,1888.00
2018-03-11T11:46:08.639Z,2044.00
2018-03-11T11:47:08.778Z,2104.00
2018-03-11T11:48:08.943Z,2048.00
2018-03-11T11:49:09.110Z,2032.00
2018-03-11T11:50:09.276Z,2096.00
2018-03-11T11:51:09.439Z,2188.00
2018-03-11T11:52:09.605Z,2204.00
2018-03-11T11:53:09.771Z,2196.00
2018-03-11T11:54:09.934Z,2140.00
2018-03-11T11:55:10.104Z,1984.00
2018-03-11T11:56:10.284Z,1996.00
2018-03-11T11:57:10.436Z,2440.00
2018-03-11T11:58:10.621Z,2588.00
2018-03-11T11:59:10.770Z,2500.00
2018-03-11T12:00:10.913Z,2108.00
2018-03-11T12:01:11.095Z,1632.00
2018-03-11T12:02:11.239Z,1492.00
2018-03-11T12:03:11.405Z,1540.00
2018-03-11T12:04:11.571Z,1868.00
2018-03-11T12:05:11.736Z,1872.00
2018-03-11T12:06:11.904Z,1476.00
2018-03-11T12:07:12.064Z,1212.00
2018-03-11T12:08:12.240Z,1284.00
2018-03-11T12:09:12.393Z,1456.00
2018-03-11T12:10:12.556Z,1496.00
2018-03-11T12:11:12.730Z,1624.00
2018-03-11T12:12:12.898Z,1832.00
2018-03-11T12:13:13.060Z,2108.00
2018-03-11T12:14:13.225Z,2556.00
2018-03-11T12:15:13.393Z,2916.00
2018-03-11T12:16:13.572Z,2992.00
2018-03-11T12:17:13.732Z,2664.00
2018-03-11T12:18:13.888Z,2536.00
2018-03-11T12:19:14.055Z,3248.00
2018-03-11T12:20:14.212Z,4136.00
2018-03-11T12:21:14.376Z,3812.00
2018-03-11T12:22:14.549Z,3176.00
2018-03-11T12:23:14.708Z,2816.00
2018-03-11T12:24:14.881Z,2496.00
2018-03-11T12:25:15.046Z,2148.00
2018-03-11T12:26:15.213Z,2432.00
2018-03-11T12:27:15.376Z,2744.00
2018-03-11T12:28:15.551Z,3072.00
2018-03-11T12:29:15.704Z,3228.00
2018-03-11T12:30:15.872Z,3596.00
2018-03-11T12:31:16.030Z,4376.00
2018-03-11T12:32:16.202Z,5672.00
2018-03-11T12:33:16.375Z,5432.00
2018-03-11T12:34:16.541Z,5840.00
2018-03-11T12:35:16.708Z,5996.00
2018-03-11T12:36:16.874Z,5484.00
2018-03-11T12:37:17.038Z,5092.00
2018-03-11T12:38:17.202Z,4480.00
2018-03-11T12:39:17.373Z,4052.00
2018-03-11T12:40:17.530Z,2616.00
2018-03-11T12:41:17.696Z,2856.00